Flight Track Log - Related Links

Times and Time Zones

All times are in EDT time to prevent confusion due to time zone crossing. See the SCX8751 flight status page for this flight to view local times or setup timezone preferences in your user account.

Time Position Orientation Groundspeed Altitude Reporting Facility
EDT Latitude Longitude Course Direction KTS MPH feet Rate Location/Type
Thu 11:44:33 PM 43.6003 -96.7294 333° Northwest 150 173 2,500  Level Minneapolis Center
Thu 11:45:34 PM 43.6392 -96.7569 349° North 226 260 4,500 2,262 Climbing Minneapolis Center
Thu 11:46:35 PM 43.6003 -96.8458 239° Southwest 259 298 7,100 2,902 Climbing Minneapolis Center
Thu 11:47:36 PM 43.5461 -96.9328 229° Southwest 285 328 10,400 2,508 Climbing Minneapolis Center
Thu 11:48:37 PM 43.4717 -97.0547 230° Southwest 328 377 12,200 2,410 Climbing Minneapolis Center
Thu 11:49:38 PM 43.4053 -97.1689 231° Southwest 374 430 15,300 3,049 Climbing Minneapolis Center
Thu 11:50:39 PM 43.3394 -97.2783 230° Southwest 375 432 18,400 2,829 Climbing Minneapolis Center
Thu 11:51:41 PM 43.2753 -97.3875 231° Southwest 373 429 21,100 2,000 Climbing Minneapolis Center
Thu 11:52:42 PM 43.2078 -97.4969 230° Southwest 374 430 22,500 1,377 Climbing Minneapolis Center
Thu 11:53:43 PM 43.1339 -97.6181 230° Southwest 410 472 23,900 1,525 Climbing Minneapolis Center
Thu 11:54:44 PM 43.0575 -97.7433 230° Southwest 425 489 25,600 1,623 Climbing Minneapolis Center
Thu 11:55:45 PM 42.9794 -97.8703 230° Southwest 431 496 27,200 1,475 Climbing Minneapolis Center
Thu 11:56:46 PM 42.8986 -98.0000 230° Southwest 447 514 28,600 1,377 Climbing Minneapolis Center
Thu 11:57:47 PM 42.8189 -98.1306 230° Southwest 447 514 30,000 1,377 Climbing Minneapolis Center
Thu 11:58:48 PM 42.7258 -98.2800 230° Southwest 447 514 31,400 1,512 Climbing Minneapolis Center
Thu 11:59:50 PM 42.6483 -98.4031 229° Southwest 435 501 33,100 1,268 Climbing Minneapolis Center
Fri 12:00:51 AM 42.5711 -98.5272 230° Southwest 434 499 34,000 443 Climbing Minneapolis Center
Fri 12:01:52 AM 42.4931 -98.6497 229° Southwest 433 498 34,000  Level Minneapolis Center
Fri 12:02:53 AM 42.4439 -98.7961 246° West 427 491 34,000  Level Minneapolis Center
Fri 12:03:54 AM 42.4086 -98.9494 253° West 429 494 34,000  Level Minneapolis Center
Fri 12:04:55 AM 42.3736 -99.1028 253° West 428 493 34,000  Level Minneapolis Center
Fri 12:05:56 AM 42.3369 -99.2561 252° West 429 494 34,000  Level Minneapolis Center
Fri 12:06:57 AM 42.3011 -99.4086 252° West 429 494 34,000  Level Minneapolis Center
Fri 12:07:58 AM 42.2656 -99.5606 252° West 428 493 34,000  Level Minneapolis Center
Fri 12:08:59 AM 42.2225 -99.7439 252° West 428 493 34,000  Level Minneapolis Center
Fri 12:10:00 AM 42.1847 -99.8939 251° West 429 494 34,000  Level Denver Center
Fri 12:11:01 AM 42.1492 -100.0417 252° West 429 494 34,000  Level Denver Center
Fri 12:12:03 AM 42.1072 -100.2119 252° West 429 494 34,000  Level Denver Center
Fri 12:13:04 AM 42.0697 -100.3567 251° West 429 494 34,000  Level Denver Center
Fri 12:19:18 AM 41.8298 -101.3100 251° West 432 497 34,000  Level FlightAware ADS-B (KEIK)
Fri 12:20:00 AM 41.8029 -101.4167 251° West 435 501 34,000  Level FlightAware ADS-B (KEIK)
Fri 12:20:30 AM 41.7844 -101.4881 251° West 435 501 34,000  Level FlightAware ADS-B (KEIK)
Fri 12:21:33 AM 41.7406 -101.6559 251° West 436 502 34,000  Level FlightAware ADS-B (KEIK)
Fri 12:22:16 AM 41.7117 -101.7653 251° West 435 501 34,000  Level FlightAware ADS-B (KEIK)
Fri 12:23:05 AM 41.6819 -101.8792 251° West 433 498 34,000  Level FlightAware ADS-B (KEIK)
Fri 12:23:47 AM 41.6623 -101.9521 251° West 432 497 34,000  Level FlightAware ADS-B (KEIK)
Fri 12:24:23 AM 41.6273 -102.0829 251° West 431 496 34,000  Level FlightAware ADS-B (KEIK)
Fri 12:25:04 AM 41.6083 -102.1553 250° West 429 494 34,000 623 Level FlightAware ADS-B (KEIK)
Fri 12:25:40 AM 41.5817 -102.2554 250° West 431 496 34,800 1,164 Climbing FlightAware ADS-B (KEIK)
Fri 12:26:11 AM 41.5550 -102.3553 250° West 428 493 35,300 1,065 Climbing FlightAware ADS-B (KEIK)
Fri 12:26:42 AM 41.5342 -102.4299 250° West 427 491 35,900 568 Climbing FlightAware ADS-B (KEIK)
Fri 12:27:25 AM 41.5099 -102.5197 250° West 429 494 36,000 63 Climbing FlightAware ADS-B (KEIK)
Fri 12:28:18 AM 41.4727 -102.6585 250° West 427 491 36,000  Level FlightAware ADS-B (KEIK)
Fri 12:28:48 AM 41.4538 -102.7276 250° West 426 490 36,000  Level FlightAware ADS-B (KEIK)
Fri 12:29:34 AM 41.4182 -102.8577 250° West 424 488 36,000  Level FlightAware ADS-B (KEIK)
Fri 12:30:14 AM 41.3929 -102.9482 250° West 422 486 36,000  Level FlightAware ADS-B (KEIK)
Fri 12:30:49 AM 41.3686 -103.0383 250° West 420 483 36,000  Level FlightAware ADS-B (KEIK)
Fri 12:31:30 AM 41.3412 -103.1375 250° West 419 482 36,000  Level FlightAware ADS-B (KEIK)
Fri 12:32:15 AM 41.3109 -103.2458 250° West 417 480 36,000  Level FlightAware ADS-B (KEIK)
Fri 12:33:22 AM 41.2664 -103.4044 250° West 419 482 36,000  Level FlightAware ADS-B
Fri 12:34:04 AM 41.2370 -103.5081 250° West 419 482 36,000  Level FlightAware ADS-B (KEIK)
Fri 12:34:42 AM 41.2112 -103.5994 250° West 418 481 36,000  Level FlightAware ADS-B (KEIK)
Fri 12:35:13 AM 41.1904 -103.6738 249° West 417 480 36,000  Level FlightAware ADS-B (KEIK)
Fri 12:36:02 AM 41.1586 -103.7834 249° West 415 478 36,000  Level FlightAware ADS-B (KEIK)
Fri 12:36:34 AM 41.1352 -103.8664 249° West 415 478 36,000  Level FlightAware ADS-B (KEIK)
Fri 12:37:06 AM 41.1136 -103.9425 249° West 415 478 36,000  Level FlightAware ADS-B (KEIK)
Fri 12:37:38 AM 41.0918 -104.0187 250° West 416 479 36,000  Level FlightAware ADS-B (KEIK)
Fri 12:38:25 AM 41.0596 -104.1307 249° West 418 481 36,000  Level FlightAware ADS-B (KEIK)
Fri 12:38:55 AM 41.0396 -104.1979 249° West 419 482 36,000  Level FlightAware ADS-B (KEIK)
Fri 12:39:36 AM 41.0098 -104.3009 249° West 420 483 36,000  Level FlightAware ADS-B
Fri 12:40:08 AM 40.9875 -104.3775 249° West 420 483 36,000  Level FlightAware ADS-B (KEIK)
Fri 12:40:42 AM 40.9637 -104.4589 249° West 419 482 36,000  Level FlightAware ADS-B
Fri 12:41:12 AM 40.9428 -104.5330 249° West 418 481 36,000  Level FlightAware ADS-B
Fri 12:41:42 AM 40.9232 -104.5994 249° West 415 478 36,000  Level FlightAware ADS-B
Fri 12:42:16 AM 40.8992 -104.6796 249° West 415 478 36,000  Level FlightAware ADS-B
Fri 12:42:52 AM 40.8747 -104.7621 249° West 415 478 36,000  Level FlightAware ADS-B
Fri 12:43:22 AM 40.8537 -104.8330 249° West 418 481 36,000  Level FlightAware ADS-B
Fri 12:43:53 AM 40.8396 -104.8807 249° West 419 482 36,000  Level FlightAware ADS-B
Fri 12:44:32 AM 40.8025 -105.0041 249° West 416 479 36,000  Level FlightAware ADS-B
Fri 12:45:02 AM 40.7812 -105.0771 249° West 415 478 36,000  Level FlightAware ADS-B (KEIK)
Fri 12:45:42 AM 40.7556 -105.1618 249° West 414 476 36,000  Level FlightAware ADS-B
Fri 12:46:13 AM 40.7389 -105.2180 248° West 413 475 36,000  Level FlightAware ADS-B
Fri 12:46:52 AM 40.7058 -105.3272 248° West 410 472 36,000  Level FlightAware ADS-B
Fri 12:47:23 AM 40.7003 -105.3458 248° West 410 472 36,000  Level FlightAware ADS-B
Fri 12:47:59 AM 40.6582 -105.4837 248° West 404 465 36,000  Level FlightAware ADS-B
Fri 12:48:35 AM 40.6326 -105.5684 248° West 405 466 36,000  Level FlightAware ADS-B (KEIK)
Fri 12:49:20 AM 40.6016 -105.6708 248° West 402 463 36,000  Level FlightAware ADS-B (KEIK)
Fri 12:49:50 AM 40.5801 -105.7408 248° West 400 460 36,000 88 Level FlightAware ADS-B (KEIK)
Fri 12:50:28 AM 40.5537 -105.8254 248° West 412 474 36,100 649 Climbing FlightAware ADS-B (KEIK)
Fri 12:51:04 AM 40.5288 -105.9060 248° West 407 468 36,800 1,200 Climbing FlightAware ADS-B (KEIK)
Fri 12:51:43 AM 40.5001 -105.9973 245° Southwest 406 467 37,600 943 Climbing FlightAware ADS-B (KEIK)
Fri 12:52:14 AM 40.4746 -106.0628 242° Southwest 407 468 37,900 329 Climbing FlightAware ADS-B (KEIK)
Fri 12:52:56 AM 40.4362 -106.1567 242° Southwest 408 470 38,000 81 Climbing FlightAware ADS-B (KEIK)
Fri 12:53:28 AM 40.4097 -106.2222 242° Southwest 406 467 38,000  Level FlightAware ADS-B (KEIK)
Fri 12:54:14 AM 40.3694 -106.3218 242° Southwest 403 464 38,000  Level FlightAware ADS-B (KEIK)
Fri 12:54:54 AM 40.3325 -106.4142 242° Southwest 402 463 38,000  Level FlightAware ADS-B (KEIK)
Fri 12:55:26 AM 40.3045 -106.4808 242° Southwest 402 463 38,000  Level FlightAware ADS-B (KEIK)
Fri 12:55:58 AM 40.2765 -106.5516 242° Southwest 402 463 38,000  Level FlightAware ADS-B (KEIK)
Fri 12:56:29 AM 40.2511 -106.6115 242° Southwest 403 464 38,000  Level FlightAware ADS-B
Fri 12:57:00 AM 40.2258 -106.6736 242° Southwest 400 460 38,000  Level FlightAware ADS-B (KEIK)
Fri 12:57:36 AM 40.1900 -106.7610 242° Southwest 400 460 38,000  Level FlightAware ADS-B
Fri 12:58:14 AM 40.1590 -106.8353 242° Southwest 399 459 38,000  Level FlightAware ADS-B (KEIK)
Fri 12:58:45 AM 40.1304 -106.9052 242° Southwest 400 460 38,000  Level FlightAware ADS-B (KEIK)
Fri 12:59:22 AM 40.0974 -106.9841 242° Southwest 403 464 38,000  Level FlightAware ADS-B (KEIK)
Fri 01:00:01 AM 40.0628 -107.0674 242° Southwest 404 465 38,000  Level FlightAware ADS-B (KEIK)
Fri 01:00:32 AM 40.0345 -107.1361 242° Southwest 405 466 38,000  Level FlightAware ADS-B
Fri 01:01:02 AM 40.0076 -107.2003 242° Southwest 404 465 38,000  Level FlightAware ADS-B
Fri 01:01:36 AM 39.9776 -107.2729 242° Southwest 404 465 38,000  Level FlightAware ADS-B
Fri 01:02:14 AM 39.9438 -107.3518 241° Southwest 404 465 38,000  Level FlightAware ADS-B (KGUC)
Fri 01:02:44 AM 39.9167 -107.4157 241° Southwest 403 464 38,000  Level FlightAware ADS-B (KGUC)
Fri 01:03:18 AM 39.8859 -107.4899 241° Southwest 403 464 38,000  Level FlightAware ADS-B
Fri 01:03:50 AM 39.8571 -107.5580 241° Southwest 402 463 38,000  Level FlightAware ADS-B
Fri 01:04:21 AM 39.8298 -107.6214 241° Southwest 402 463 38,000  Level FlightAware ADS-B
Fri 01:04:51 AM 39.8023 -107.6870 241° Southwest 401 461 38,000  Level FlightAware ADS-B
Fri 01:05:21 AM 39.7760 -107.7502 241° Southwest 401 461 38,000  Level FlightAware ADS-B
Fri 01:05:51 AM 39.7485 -107.8135 241° Southwest 402 463 38,000  Level FlightAware ADS-B
Fri 01:06:21 AM 39.7215 -107.8765 241° Southwest 402 463 38,000  Level FlightAware ADS-B
Fri 01:06:51 AM 39.6943 -107.9397 241° Southwest 402 463 38,000  Level FlightAware ADS-B
Fri 01:07:21 AM 39.6674 -108.0033 241° Southwest 405 466 38,000  Level FlightAware ADS-B
Fri 01:07:51 AM 39.6402 -108.0668 241° Southwest 406 467 38,000  Level FlightAware ADS-B
Fri 01:08:21 AM 39.6125 -108.1307 241° Southwest 407 468 38,000  Level FlightAware ADS-B
Fri 01:08:51 AM 39.5852 -108.1946 241° Southwest 408 470 38,000  Level FlightAware ADS-B
Fri 01:09:21 AM 39.5575 -108.2587 241° Southwest 409 471 38,000  Level FlightAware ADS-B
Fri 01:09:51 AM 39.5294 -108.3229 241° Southwest 409 471 38,000  Level FlightAware ADS-B
Fri 01:10:25 AM 39.4979 -108.3951 241° Southwest 407 468 38,000  Level FlightAware ADS-B (KGUC)
Fri 01:10:55 AM 39.4705 -108.4586 241° Southwest 407 468 38,000  Level FlightAware ADS-B (KGUC)
Fri 01:11:27 AM 39.4411 -108.5266 241° Southwest 405 466 38,000  Level FlightAware ADS-B (KGUC)
Fri 01:11:57 AM 39.4133 -108.5895 240° Southwest 404 465 38,000  Level FlightAware ADS-B (KGUC)
Fri 01:12:35 AM 39.3784 -108.6690 240° Southwest 404 465 38,000  Level FlightAware ADS-B
Fri 01:13:05 AM 39.3507 -108.7320 241° Southwest 403 464 38,000  Level FlightAware ADS-B
Fri 01:13:35 AM 39.3231 -108.7947 240° Southwest 404 465 38,000  Level FlightAware ADS-B
Fri 01:14:05 AM 39.2953 -108.8576 240° Southwest 404 465 38,000  Level FlightAware ADS-B
Fri 01:14:35 AM 39.2683 -108.9183 240° Southwest 404 465 38,000  Level FlightAware ADS-B
Fri 01:15:05 AM 39.2397 -108.9830 240° Southwest 405 466 38,000  Level FlightAware ADS-B
Fri 01:15:36 AM 39.2117 -109.0460 240° Southwest 405 466 38,000  Level FlightAware ADS-B
Fri 01:16:06 AM 39.1834 -109.1110 241° Southwest 404 465 38,000  Level FlightAware ADS-B
Fri 01:16:36 AM 39.1579 -109.1674 240° Southwest 405 466 38,000  Level FlightAware ADS-B
Fri 01:17:07 AM 39.1261 -109.2385 240° Southwest 405 466 38,000  Level FlightAware ADS-B
Fri 01:17:37 AM 39.0985 -109.3011 241° Southwest 405 466 38,000  Level FlightAware ADS-B
Fri 01:18:07 AM 39.0709 -109.3638 240° Southwest 404 465 38,000  Level FlightAware ADS-B
Fri 01:18:37 AM 39.0426 -109.4262 240° Southwest 403 464 38,000  Level FlightAware ADS-B
Fri 01:19:07 AM 39.0146 -109.4880 240° Southwest 402 463 38,000  Level FlightAware ADS-B
Fri 01:19:37 AM 38.9864 -109.5499 240° Southwest 402 463 38,000  Level FlightAware ADS-B
Fri 01:20:07 AM 38.9593 -109.6099 240° Southwest 402 463 38,000  Level FlightAware ADS-B (KGUC)
Fri 01:20:37 AM 38.9323 -109.6676 240° Southwest 402 463 38,000  Level FlightAware ADS-B (KGUC)
Fri 01:21:08 AM 38.9016 -109.7355 240° Southwest 401 461 38,000  Level FlightAware ADS-B (KGUC)
Fri 01:21:39 AM 38.8721 -109.8013 240° Southwest 402 463 38,000  Level FlightAware ADS-B (KGUC)
Fri 01:22:12 AM 38.8426 -109.8672 240° Southwest 402 463 38,000  Level FlightAware ADS-B
Fri 01:22:42 AM 38.8133 -109.9311 240° Southwest 402 463 38,000  Level FlightAware ADS-B
Fri 01:23:14 AM 38.7837 -109.9967 240° Southwest 401 461 38,000  Level FlightAware ADS-B
Fri 01:23:52 AM 38.7477 -110.0742 240° Southwest 400 460 38,000  Level FlightAware ADS-B
Fri 01:24:34 AM 38.7087 -110.1599 240° Southwest 399 459 38,000  Level FlightAware ADS-B
Fri 01:25:17 AM 38.6854 -110.2106 240° Southwest 398 458 38,000  Level FlightAware ADS-B (KGUC)
Fri 01:25:58 AM 38.6550 -110.2756 240° Southwest 398 458 38,000  Level FlightAware ADS-B (KGUC)
Fri 01:26:36 AM 38.5940 -110.4070 239° Southwest 397 457 38,000  Level FlightAware ADS-B (KGUC)
Fri 01:27:27 AM 38.5484 -110.5056 239° Southwest 396 456 38,000  Level FlightAware ADS-B (KGUC)
Fri 01:27:57 AM 38.5224 -110.5620 240° Southwest 396 456 38,000  Level FlightAware ADS-B (KGUC)
Fri 01:28:27 AM 38.4914 -110.6283 239° Southwest 396 456 38,000  Level FlightAware ADS-B
Fri 01:28:58 AM 38.4627 -110.6887 239° Southwest 397 457 38,000  Level FlightAware ADS-B
Fri 01:29:29 AM 38.4322 -110.7550 239° Southwest 397 457 38,000  Level FlightAware ADS-B
Fri 01:30:00 AM 38.4038 -110.8151 239° Southwest 397 457 38,000  Level FlightAware ADS-B
Fri 01:30:30 AM 38.3757 -110.8756 239° Southwest 399 459 38,000  Level FlightAware ADS-B
Fri 01:31:00 AM 38.3471 -110.9359 239° Southwest 400 460 38,000  Level FlightAware ADS-B
Fri 01:31:30 AM 38.3181 -110.9985 239° Southwest 401 461 38,000  Level FlightAware ADS-B
Fri 01:32:30 AM 38.2608 -111.1192 239° Southwest 398 458 38,000  Level FlightAware ADS-B
Fri 01:34:02 AM 38.1738 -111.3023 239° Southwest 392 451 38,000  Level FlightAware ADS-B
Fri 01:35:05 AM 38.1146 -111.4261 239° Southwest 392 451 38,000  Level FlightAware ADS-B
Fri 01:36:09 AM 38.0548 -111.5517 238° Southwest 390 449 38,000  Level FlightAware ADS-B
Fri 01:37:11 AM 37.9963 -111.6718 239° Southwest 388 447 38,000  Level FlightAware ADS-B
Fri 01:38:14 AM 37.9377 -111.7940 239° Southwest 388 447 38,000  Level FlightAware ADS-B
Fri 01:39:19 AM 37.8774 -111.9180 239° Southwest 388 447 38,000  Level FlightAware ADS-B
Fri 01:40:21 AM 37.8186 -112.0397 239° Southwest 388 447 38,000  Level FlightAware ADS-B
Fri 01:41:28 AM 37.7553 -112.1670 238° Southwest 389 448 38,000  Level FlightAware ADS-B
Fri 01:42:32 AM 37.6951 -112.2910 238° Southwest 391 450 38,000  Level FlightAware ADS-B
Fri 01:43:35 AM 37.6251 -112.4088 233° Southwest 396 456 38,000  Level FlightAware ADS-B
Fri 01:44:35 AM 37.5581 -112.5185 233° Southwest 396 456 38,000  Level FlightAware ADS-B
Fri 01:45:39 AM 37.4859 -112.6352 232° Southwest 396 456 38,000 -136 Level FlightAware ADS-B
Fri 01:46:47 AM 37.4103 -112.7590 232° Southwest 395 455 37,700 -609 Descending FlightAware ADS-B
Fri 01:47:47 AM 37.3436 -112.8664 232° Southwest 386 444 36,700 -968 Descending FlightAware ADS-B
Fri 01:48:51 AM 37.2725 -112.9806 233° Southwest 391 450 35,700 -984 Descending FlightAware ADS-B
Fri 01:49:55 AM 37.2020 -113.0940 232° Southwest 382 440 34,600 -977 Descending FlightAware ADS-B
Fri 01:51:00 AM 37.1313 -113.2077 232° Southwest 393 452 33,600 -938 Descending FlightAware ADS-B
Fri 01:52:03 AM 37.0590 -113.3230 232° Southwest 399 459 32,600 -945 Descending FlightAware ADS-B
Fri 01:53:07 AM 36.9857 -113.4382 232° Southwest 391 450 31,600 -1,078 Descending FlightAware ADS-B
Fri 01:54:11 AM 36.9149 -113.5509 232° Southwest 382 440 30,300 -1,695 Descending FlightAware ADS-B
Fri 01:55:18 AM 36.8437 -113.6643 232° Southwest 366 421 27,900 -2,123 Descending FlightAware ADS-B
Fri 01:56:21 AM 36.7784 -113.7665 232° Southwest 352 405 25,700 -2,063 Descending FlightAware ADS-B
Fri 01:57:26 AM 36.7132 -113.8688 232° Southwest 345 397 23,500 -1,980 Descending FlightAware ADS-B
Fri 01:58:01 AM 36.6786 -113.9206 232° Southwest 348 400 22,400 -1,938 Descending Los Angeles Center
Fri 01:59:02 AM 36.6194 -114.0139 232° Southwest 348 400 20,400 -1,951 Descending Los Angeles Center
Fri 02:00:04 AM 36.5631 -114.1056 233° Southwest 338 389 18,400 -1,951 Descending Los Angeles Center
Fri 02:01:05 AM 36.5183 -114.2069 241° Southwest 336 387 16,400 -1,967 Descending Los Angeles Center
Fri 02:02:06 AM 36.4725 -114.3067 240° Southwest 334 384 14,400 -1,973 Descending Los Angeles Center
Fri 02:02:18 AM 36.4669 -114.3319 255° West 332 382 14,000 -1,900 Descending Los Angeles Center
Fri 02:03:06 AM 36.4286 -114.4058 237° Southwest 330 380 12,500 -1,376 Descending Los Angeles Center
Fri 02:04:07 AM 36.3756 -114.4856 230° Southwest 304 350 11,500 -984 Descending Los Angeles Center
Fri 02:05:08 AM 36.3097 -114.5375 212° Southwest 283 326 10,500 -1,033 Descending Los Angeles Center
Fri 02:06:09 AM 36.2492 -114.5864 213° Southwest 263 303 9,400 -1,033 Descending Los Angeles Center
Fri 02:07:10 AM 36.2008 -114.6447 224° Southwest 250 288 8,400 -896 Descending Los Angeles Center
Fri 02:13:11 AM 36.0737 -115.0618 270° West 179 206 3,100 -885 Descending FlightAware ADS-B
Fri 02:14:17 AM 36.0733 -115.1222 270° West 164 189 2,100 -909 Descending Los Angeles Center

Login

Don't have an account? Register now (free) for customized features, flight alerts, and more!